Camilo Vargas

Recruteur en chef - Alianza Petrolera
23 Avr 2028
Dimanche
Processus

Personnalité

Adaptabilité (1) Ambition (12) Controverse (14) Loyauté (13) Pression (9) Professionnalisme (9) Sportivité (10) Tempérament (15)

Profil

Style d'entraînement Démocratique
Diplôme Continental Pro
Détermination 6
Gestion des joueurs 7
Motivation 3
Discipline 10
Satisfaction professionnelle
100%
Fatigue
0%
Rôle Recruteur en chef
Salaire 66.0K p/s
Contrat 14.03.2029

Performance

Comportement Bon
Efficacité de l'entraînement
54%
Développement des joueurs
25%
Prévention des blessures
20%
Mise en place tactique
55%

Événements récents

A participé à une réunion de recrutement maintenant
A participé à une réunion de recrutement maintenant
A participé à une réunion de recrutement 7j
A participé à une réunion de recrutement 7j
A participé à une réunion de recrutement 7j
A participé à une réunion de recrutement 14j
A participé à une réunion de recrutement 14j
A participé à une réunion de recrutement 14j

Suivi en cours

159
Joueur Club Statut Capacité Confiance Observé Dernière observation Dernier vote
Juan Diego Perdomo Depor Perdu 87 / 91 58% 1 01.12.2027 -
Jorge Ramirez Valledupar Actif 102 / 90 55% 1 19.07.2027 -
Elkin Rivero Atletico Nacional Actif 102 / 110 55% 1 28.06.2027 -
Domi Berlanga Cavese Actif 81 / 99 40% 1 31.05.2027 -
Josh Windass Wrexham Actif 140 / 124 40% 2 30.05.2027 -
Santiago Pierotti Lecce Actif 136 / 129 40% 3 28.05.2027 -
Aidomo Emakhu Oxford United Actif 120 / 127 40% 1 28.05.2027 -
Job Ochieng Real Sociedad Actif 97 / 102 40% 5 27.05.2027 -
Tyrese Campbell Sheffield United Actif 120 / 133 40% 3 27.05.2027 -
Marezi Portsmouth Actif 120 / 125 40% 2 25.05.2027 -
Stephen Humphrys Bradford City Actif 101 / 110 40% 1 17.05.2027 -
Jacopo Manconi Casertana Actif 130 / 105 40% 1 17.05.2027 -
Jordan Roberts Stevenage Actif 108 / 116 40% 1 16.05.2027 -
Ilyas Ansah Hull City Actif 133 / 137 40% 4 14.05.2027 -
Calum Kavanagh Oldham Athletic Actif 103 / 97 40% 1 13.05.2027 -
Fábio Tavares Burton Albion Actif 104 / 101 40% 1 12.05.2027 -
Sam Bell Bristol City Actif 127 / 121 40% 2 08.05.2027 -
Michael Smith Mansfield Town Actif 103 / 105 40% 1 07.05.2027 -
Richard Koné Queens Park Rangers Actif 131 / 125 40% 2 05.05.2027 -
Giuseppe Di Serio Spezia Actif 111 / 126 40% 1 05.05.2027 -
Stephen Amankona Aduana Stars Actif 79 / 92 40% 1 04.05.2027 -
Yousef Salech Cardiff City Actif 135 / 124 40% 2 03.05.2027 -
Aune Heggebø West Bromwich Albion Actif 143 / 124 40% 1 30.04.2027 -
Elijah Adebayo Luton Town Actif 133 / 127 40% 2 29.04.2027 -
Gastón Rodríguez Hatayspor Actif 111 / 94 40% 1 28.04.2027 -
Ryan Graydon Salford City Actif 94 / 100 40% 1 26.04.2027 -
Lazar Marković Apollon Actif 141 / 129 40% 3 23.04.2027 -
Sam Nombe Milton Keynes Dons Actif 117 / 107 40% 2 23.04.2027 -
Nardin Mulahusejnović Vojvodina Actif 140 / 127 40% 2 22.04.2027 -
Abeiku Asante BA All Stars Actif 93 / 84 40% 1 11.04.2027 -
Abu Kamara Portsmouth Actif 110 / 123 40% 1 09.04.2027 -
Harry Cornick AFC Wimbledon Actif 99 / 103 40% 1 08.04.2027 -
Patrick Cutrone Monza Actif 117 / 133 40% 1 05.04.2027 -
Mostafa Mohamed Konyaspor Actif 138 / 130 40% 1 05.04.2027 -
Josh Coburn Millwall Actif 115 / 117 40% 1 14.03.2027 -
Rocco Vata Watford Actif 118 / 130 40% 2 10.03.2027 -
Gastón Tedesco Adana Demirspor Actif 92 / 95 40% 1 10.03.2027 -
Paolo Yrizar Chernomorets Actif 81 / 94 40% 1 04.03.2027 -
Bradley Fink Wycombe Wanderers Actif 114 / 108 40% 1 02.03.2027 -
George Brown Sheffield Wednesday Actif 113 / 110 40% 1 27.02.2027 -
Thierry Ambrose KV Kortrijk Actif 137 / 114 40% 1 26.02.2027 -
Zach Ryan Ismaily Actif 116 / 100 40% 1 25.02.2027 -
Jackson Muleka Konyaspor Actif 125 / 126 40% 2 24.02.2027 -
Wandile Duba ASO Chlef Actif 116 / 108 40% 1 24.02.2027 -
Matías Laurino Gornik Leczna Actif 82 / 98 40% 1 23.02.2027 -
Peter Itodo Metalist Actif 96 / 119 40% 1 22.02.2027 -
Samuel Kalu Botev Plovdiv Actif 128 / 125 40% 1 22.02.2027 -
Tyreece Campbell Charlton Athletic Actif 118 / 113 40% 2 19.02.2027 -
Kyle Wootton Stockport County Actif 127 / 119 40% 1 17.02.2027 -
Oleksii Hutsuliak Polissia Actif 113 / 129 40% 1 16.02.2027 -
Andri Guðjohnsen Blackburn Rovers Actif 113 / 117 40% 1 13.02.2027 -
Filip Kubala Banik Ostrava Actif 106 / 113 40% 1 10.02.2027 -
Fejsal Mulić Novi Pazar Actif 94 / 108 40% 1 10.02.2027 -
Callum Lang Preston Actif 119 / 112 40% 1 09.02.2027 -
Matěj Pulkrab Teplice Actif 101 / 114 40% 1 06.02.2027 -
Federico Martínez MFK Ruzomberok Actif 127 / 120 40% 1 06.02.2027 -
Joe Gelhardt Hull City Actif 132 / 134 40% 1 02.02.2027 -
Egas Cacintura Akhmat Grozny Actif 132 / 123 40% 1 02.02.2027 -
Eyder Restrepo Llaneros Actif 103 / 104 55% 1 28.12.2026 -
Alexis Canelo Atlético Tucumán Actif 114 / 113 40% 1 28.12.2026 -
Juan Dinenno Pumas UNAM Actif 112 / 133 40% 1 28.12.2026 -
Peter Valjent FK Senica Actif 112 / 125 40% 2 14.12.2026 -
Ola Solbakken FC Nordsjaelland Actif 127 / 118 40% 1 14.12.2026 -
Santiago Rodríguez Gimnasia y Esgrima Actif 116 / 121 40% 1 30.11.2026 -
Matías Contrera Hrvatski Dragovoljac Actif 91 / 107 40% 1 27.11.2026 -
Agustín Gallo Tristán Suárez Actif 114 / 115 40% 2 25.11.2026 -
Alexey Miranchuk Atlanta United FC Actif 126 / 151 40% 1 25.11.2026 -
Luka Jović CFR Cluj Actif 143 / 135 40% 1 24.11.2026 -
Bertrand Traoré Sunderland Actif 136 / 140 40% 1 23.11.2026 -
Matías Vargas Gimnasia y Esgrima Actif 129 / 127 40% 2 22.11.2026 -
Joel Orlando Almagro Actif 106 / 112 40% 2 20.11.2026 -
Alejandro Piedrahita Deportivo Pereira Actif 116 / 117 40% 1 18.11.2026 -
Gonzalo Valenzuela Radnicki Nis Actif 119 / 114 40% 3 16.11.2026 -
Santiago González Tigre Actif 135 / 128 40% 1 16.11.2026 -
Cameron Archer Southampton Actif 128 / 130 40% 1 14.11.2026 -
Paulo Victor Queretaro Actif 120 / 107 40% 1 14.11.2026 -
Tiago Banega Gimnasia y Tiro Actif 117 / 112 40% 1 14.11.2026 -
Rodrigo Bogarín Barracas Central Actif 128 / 115 40% 1 12.11.2026 -
Mauro Méndez Tigre Actif 116 / 119 40% 1 11.11.2026 -
Emiliano Álvarez Progreso Actif 131 / 121 40% 1 11.11.2026 -
Santiago Rodríguez Columbus Crew Actif 139 / 117 40% 1 11.11.2026 -
Rodrigo López Pumas UNAM Actif 98 / 117 40% 1 07.11.2026 -
Ignacio Rodríguez Racing Club Actif 121 / 124 40% 2 06.11.2026 -
Derensili Sanches Fernandes Huddersfield Town Actif 134 / 116 40% 1 06.11.2026 -
Duk Atlas Actif 101 / 117 40% 2 05.11.2026 -
Mariano Bracamonte Deportivo Riestra Actif 119 / 115 40% 1 05.11.2026 -
Alex Luna Instituto Actif 140 / 126 40% 2 03.11.2026 Plus d'infos
Ola Brynhildsen Rapid Wien Actif 122 / 120 40% 1 03.11.2026 -
Gonzalo Ríos Independiente Rivadavia Actif 127 / 122 40% 1 03.11.2026 Plus d'infos
Joaquín Tobio Burgos Pachuca Actif 117 / 116 40% 1 02.11.2026 -
Christian Ebere Cruz Azul Actif 127 / 111 40% 1 30.10.2026 -
Daniel Karlsbakk Sarpsborg 08 Actif 127 / 123 40% 1 29.10.2026 -
Mauro Valiente Estudiantes Actif 103 / 111 40% 1 28.10.2026 -
Fiete Arp OB Actif 148 / 116 40% 1 28.10.2026 -
Alexander Díaz Deportivo Riestra Actif 123 / 112 40% 1 27.10.2026 -
Renzo Reynaga Patronato Actif 117 / 110 40% 1 27.10.2026 -
Mourad Tijuana Actif 117 / 118 40% 2 23.10.2026 -
Pedro Ramírez Deportivo Riestra Actif 112 / 116 40% 2 22.10.2026 -
Juan Rocca Gimnasia y Tiro Actif 98 / 103 40% 1 22.10.2026 -
Mohamed-Ali Cho Hull City Actif 127 / 135 40% 1 21.10.2026 -
Diego Sánchez Progreso Actif 104 / 99 40% 1 17.10.2026 -
Antonio Napolitano Agropecuario Argentino Actif 121 / 113 40% 1 17.10.2026 -
Matías Pellegrini Vélez Actif 109 / 121 40% 1 17.10.2026 -
Franco Bustamante Almagro Actif 115 / 97 40% 1 15.10.2026 -
Jorge Gonzalez Viitorul Actif 90 / 88 40% 1 10.10.2026 -
Esteban da Silva Racing Actif 120 / 118 40% 1 09.10.2026 -
Milton Giménez Boca Juniors Actif 128 / 121 40% 1 09.10.2026 -
Enzo Silcan Almagro Actif 118 / 106 40% 1 08.10.2026 -
Santiago Sala Güemes Actif 117 / 116 40% 1 06.10.2026 -
Bayron Duarte Queretaro Actif 123 / 116 40% 1 06.10.2026 -
Rodrigo Rivero Wanderers Actif 107 / 114 40% 1 02.10.2026 -
Lisandro Cabrera Maipú Actif 105 / 114 40% 1 29.09.2026 -
Ignacio Russo Tigre Actif 126 / 122 40% 1 25.09.2026 -
Rafael Santos Borré River Plate Actif 135 / 134 40% 1 25.09.2026 -
Wessam Abou Ali Columbus Crew Actif 115 / 138 40% 1 22.09.2026 -
Ronny Maza Aragua Actif 95 / 96 40% 1 18.09.2026 -
Eryc Castillo Alianza Lima Actif 129 / 124 40% 2 16.09.2026 -
Agustín Paz Progreso Actif 114 / 117 40% 1 16.09.2026 -
Ignacio Yepez Cerrito Actif 116 / 108 40% 1 15.09.2026 -
Emiliano Saliadarre Miramar Misiones Actif 109 / 108 40% 1 15.09.2026 -
Jonatan Torres Cerro Porteno Actif 118 / 120 40% 1 14.09.2026 -
Bautista Tomatis Racing Actif 115 / 113 40% 1 13.09.2026 -
Facundo Castro Defensor Sporting Actif 99 / 109 40% 1 13.09.2026 -
Kelvin Yeboah Minnesota United FC Actif 112 / 126 40% 1 12.09.2026 -
Leonardo Campana New England Revolution Actif 132 / 128 40% 1 12.09.2026 -
Santiago Corbo Miramar Misiones Actif 91 / 101 40% 1 12.09.2026 -
Luciano Cosentino Wanderers Actif 128 / 120 40% 1 12.09.2026 -
Brayan Alcócer Oleksandriya Actif 88 / 101 40% 1 10.09.2026 -
Santiago Guzmán Wanderers Actif 108 / 104 40% 1 10.09.2026 -
Enzo Cabrera Danubio Actif 102 / 118 40% 1 09.09.2026 -
Marcos Cuenca Zaragoza Actif 113 / 114 40% 2 08.09.2026 -
Germán Berterame Inter Miami CF Actif 147 / 142 40% 2 07.09.2026 -
Maximiliano Guerrero Universidad de Chile Actif 102 / 106 40% 1 07.09.2026 -
Jesus Ferreira Seattle Sounders Actif 141 / 138 40% 1 07.09.2026 -
Rafael Arace Caracas Actif 117 / 106 40% 1 05.09.2026 -
José Rivera Universitario Actif 110 / 107 40% 1 31.08.2026 -
Jonathan Cañete Portuguesa Actif 110 / 112 40% 2 30.08.2026 -
Walter González Sportivo Luqueno Actif 107 / 118 40% 2 30.08.2026 -
Elias Manoel Tijuana Actif 126 / 111 40% 1 28.08.2026 -
Aarón Martínez HNK Vukovar 1991 Actif 93 / 80 40% 1 27.08.2026 -
Diego Coelho Audax Italiano Actif 109 / 112 40% 1 26.08.2026 -
Richard Torales Guarani Actif 100 / 108 40% 1 23.08.2026 -
José Barragán Zamora Actif 91 / 100 40% 1 22.08.2026 -
Jordan Morris Seattle Sounders Actif 130 / 123 40% 1 21.08.2026 -
Julián Brea Cobresal Actif 102 / 107 40% 1 21.08.2026 -
Cristian Núñez Huracán Actif 104 / 113 40% 1 19.08.2026 -
Luis Iberico Sporting Cristal Actif 104 / 108 40% 1 17.08.2026 -
Myrto Uzuni Austin FC Actif 135 / 128 40% 1 15.08.2026 -
Rafael Moreno Atletico Venezuela Actif 106 / 115 40% 1 14.08.2026 -
Marcelo Torres Gimnasia La Plata Actif 112 / 114 40% 1 10.08.2026 -
David Fernández O'Higgins Actif 97 / 118 40% 1 07.08.2026 -
Miguel Ortega Deportes Tolima Actif 119 / 125 40% 1 07.08.2026 -
Franco Carretero Deportivo Lara Actif 90 / 93 40% 1 07.08.2026 -
Egoitz Arana Real Sociedad Actif 96 / 99 40% 1 06.08.2026 -
Santiago Rojas Nacional Actif 125 / 120 40% 1 05.08.2026 -
Antonio Martínez Cerro Porteno Actif 78 / 84 40% 1 05.08.2026 -
Jorge Sánchez Atlas Actif 143 / 124 40% 1 03.08.2026 -
Angel Zamudio Sport Huancayo Actif 107 / 109 40% 1 03.08.2026 -
Gonzalo Berterame Morón Actif 124 / 116 40% 1 01.08.2026 -